Grand Rapids, MI (49512)

6:13 PM EDT on May 24, 2015 (GMT -0400)
Kentwood | | Change Station
CLOSE
Current Station
Personal Weather Station
Location: Kentwood, MI
Elevation: 709 ft
Nearby Weather Stations

Elev 709 ft 42.90 °N, 85.59 °W | Updated 4 seconds ago

Overcast
Overcast
71.6 °F
Feels Like 77 °F
N
0.0
Wind Variable Wind from South
Gusts 0.0 mph

Today
High -- | Low -- °F
--% Chance of Precip.
Yesterday
High -- | Low -- °F
Precip. -- in
6:11 AM 9:07 PM
Waxing Crescent, 42% visible
Pressure 30.09 in
Visibility 10.0 miles
Clouds Scattered Clouds 7500 ft
Overcast 10000 ft
Heat Index 77 °F
Dew Point 50 °F
Humidity 46%
Rainfall 0.00 in
Snow Depth Not available.
UV 1 out of 12
Pollen 10.00 out of 12
Air Quality Not available.
Flu Activity Sporadic
METAR KGRR 242153Z 10007KT 10SM -RA SCT075 OVC100 21/12 A3009 RMK AO2 RAE00B22 SLP189 P0000 T02110122

More Conditions Fewer Conditions

Pressure 30.09 in
Visibility 10.0 miles
Clouds Scattered Clouds 7500 ft
Overcast 10000 ft
Heat Index 77 °F
Dew Point 50 °F
Humidity 46%
Rainfall 0.00 in
Snow Depth Not available.
UV 1 out of 12
Pollen 10.00 out of 12
Air Quality Not available.
Flu Activity Sporadic
METAR KGRR 242153Z 10007KT 10SM -RA SCT075 OVC100 21/12 A3009 RMK AO2 RAE00B22 SLP189 P0000 T02110122

More Conditions Fewer Conditions

10-Day Weather Forecast

Almanac

Astronomy

May. 24, 2015 Rise Set
Actual Time
Civil Twilight
Nautical Twilight
Astronomical Twilight
Moon
Length of Visible Light
Length of Day
Tomorrow will be .
, % of the Moon is Illuminated

Today's Extremes

State Highs State Lows

Community

WunderPhotos

Upload Photos

1,823,877 photos uploaded!

WunderBlogs® & News

Nearby

Air Quality

  Air Quality AQ Index Pollutant
Not available.

Snow Depth

Station Depth Elevation

Earthquake Activity

City Distance Mag. Time & Date
Minimum magnitude displayed is 2.5.

Coastal Water Temperatures

Place Temperature

Stations

Nearby Weather Stations

Station Location Temp. Windchill Dew Point Humidity Wind Precip. Elev Updated Type